Flight Track Log - Related Links

Times and Time Zones

All times are in EST time to prevent confusion due to time zone crossing. See the UPS1143 flight status page for this flight to view local times or setup timezone preferences in your user account.

Time Position Orientation Groundspeed Altitude Reporting Facility
EST Latitude Longitude Course Direction KTS MPH feet Rate Location/Type
Fri 11:45:00 PM 42.3162 -79.7465 228° Southwest  Level Estimated
Fri 11:45:01 PM 42.3432 -79.4185 228° Southwest 403 464 30,700  Level FlightAware ADS-B
Fri 11:47:32 PM 42.1716 -79.7056 231° Southwest 391 450 32,000 371 Climbing FlightAware ADS-B (CYKF)
Fri 11:48:31 PM 42.1037 -79.8224 232° Southwest 394 453 32,000 56 Level FlightAware ADS-B (CYKF)
Fri 11:49:20 PM 42.0509 -79.9128 232° Southwest 395 455 32,100  Climbing FlightAware ADS-B (CYKF)
Fri 11:50:37 PM 41.9621 -80.0642 232° Southwest 392 451 32,000 -38 Descending FlightAware ADS-B (CYKF)
Fri 11:51:56 PM 41.8822 -80.1969 232° Southwest 392 451 32,000  Level Cleveland Center
Fri 11:52:56 PM 41.8150 -80.3131 232° Southwest 392 451 32,000  Level Cleveland Center
Fri 11:53:57 PM 41.7450 -80.4272 231° Southwest 394 453 32,000  Level Cleveland Center
Fri 11:54:58 PM 41.6772 -80.5419 232° Southwest 390 449 32,000  Level Cleveland Center
Fri 11:55:58 PM 41.6089 -80.6561 231° Southwest 390 449 32,000  Level Cleveland Center
Fri 11:56:59 PM 41.5397 -80.7717 231° Southwest 394 453 32,000  Level Cleveland Center
Fri 11:58:00 PM 41.4708 -80.8858 231° Southwest 392 451 32,000  Level Cleveland Center
Fri 11:59:00 PM 41.4025 -80.9997 231° Southwest 390 449 32,000  Level Cleveland Center
Sat 12:00:01 AM 41.3333 -81.1142 231° Southwest 391 450 32,000  Level Cleveland Center
Sat 12:01:01 AM 41.2639 -81.2283 231° Southwest 392 451 32,000  Level Cleveland Center
Sat 12:02:02 AM 41.1947 -81.3414 231° Southwest 390 449 32,000  Level Cleveland Center
Sat 12:03:02 AM 41.1253 -81.4564 231° Southwest 392 451 32,000  Level Cleveland Center
Sat 12:04:03 AM 41.0575 -81.5661 231° Southwest 381 438 32,000  Level Cleveland Center
Sat 12:05:04 AM 40.9903 -81.6739 230° Southwest 374 430 32,000  Level Cleveland Center
Sat 12:06:04 AM 40.9239 -81.7811 231° Southwest 372 428 32,000  Level Cleveland Center
Sat 12:07:05 AM 40.8578 -81.8861 230° Southwest 368 423 32,000  Level Cleveland Center
Sat 12:08:05 AM 40.7917 -81.9917 230° Southwest 368 423 32,000  Level Cleveland Center
Sat 12:14:12 AM 40.8960 -81.8250 230° Southwest 365 420 32,000  Level FlightAware ADS-B (KBKF)
Sat 12:15:08 AM 40.3500 -82.6900 230° Southwest 354 407 32,000  Level Indianapolis Center
Sat 12:16:08 AM 40.2850 -82.7886 229° Southwest 352 405 32,000  Level Indianapolis Center
Sat 12:17:09 AM 40.2167 -82.8969 230° Southwest 353 406 32,000  Level Indianapolis Center
Sat 12:18:10 AM 40.1531 -82.9942 229° Southwest 352 405 32,000  Level Indianapolis Center
Sat 12:19:11 AM 40.0908 -83.0906 230° Southwest 349 402 32,000  Level Indianapolis Center
Sat 12:20:11 AM 40.0272 -83.1878 230° Southwest 350 403 32,000 -319 Level Indianapolis Center
Sat 12:25:27 AM 39.6817 -83.7144 230° Southwest 364 419 30,000 -330 Descending FlightAware ADS-B
Sat 12:26:15 AM 39.6344 -83.7857 229° Southwest 364 419 30,000 -531 Level FlightAware ADS-B
Sat 12:31:17 AM 39.3501 -84.2109 229° Southwest 291 335 26,900 -700 Descending FlightAware ADS-B
Sat 12:34:49 AM 39.1119 -84.3706 207° Southwest 293 337 24,000 -654 Descending FlightAware ADS-B
Sat 12:35:43 AM 39.0817 -84.3848 200° South 290 334 24,000 -1,234 Level FlightAware ADS-B
Sat 12:38:18 AM 38.8441 -84.4928 199° South 258 297 19,700 -1,318 Descending FlightAware ADS-B
Sat 12:39:26 AM 38.8336 -84.4975 199° South 242 278 19,100 -900 Descending FlightAware ADS-B (KCVG)
Sat 12:39:58 AM 38.7589 -84.5816 221° Southwest 236 272 18,200 -2,156 Descending FlightAware ADS-B
Sat 12:40:30 AM 38.7423 -84.6212 242° Southwest 238 274 16,800 -2,676 Descending FlightAware ADS-B (KCVG)
Sat 12:41:12 AM 38.7209 -84.6733 242° Southwest 235 270 14,900 -2,667 Descending FlightAware ADS-B (KCVG)
Sat 12:41:51 AM 38.7011 -84.7148 239° Southwest 234 269 13,200 -2,444 Descending FlightAware ADS-B (KCVG)
Sat 12:43:00 AM 38.6565 -84.7962 235° Southwest 223 257 10,500 -1,682 Descending FlightAware ADS-B
Sat 12:43:38 AM 38.6565 -84.7962 235° Southwest 222 255 10,200 -161 Descending FlightAware ADS-B
Sat 12:44:52 AM 38.5550 -84.8691 209° Southwest 224 258 10,200  Level FlightAware ADS-B
Sat 12:46:00 AM 38.4906 -84.9051 204° Southwest 228 262 10,200  Level FlightAware ADS-B
Sat 12:46:59 AM 38.4337 -84.9366 203° Southwest 223 257 10,200  Level FlightAware ADS-B
Sat 12:47:55 AM 38.3798 -84.9662 203° Southwest 225 259 10,200  Level FlightAware ADS-B
Sat 12:49:01 AM 38.3156 -85.0007 203° Southwest 221 254 10,200  Level FlightAware ADS-B
Sat 12:50:00 AM 38.2643 -85.0275 202° Southwest 225 259 10,200  Level FlightAware ADS-B
Sat 12:51:01 AM 38.2018 -85.0594 202° Southwest 220 253 10,200  Level FlightAware ADS-B
Sat 12:52:01 AM 38.1653 -85.1183 232° Southwest 224 258 10,200 -50 Level FlightAware ADS-B
Sat 12:53:01 AM 38.1372 -85.1871 243° Southwest 228 262 10,100 -500 Descending FlightAware ADS-B
Sat 12:54:01 AM 38.1075 -85.2575 242° Southwest 221 254 9,200 -950 Descending FlightAware ADS-B
Sat 12:55:01 AM 38.0777 -85.3276 242° Southwest 218 251 8,200 -807 Descending FlightAware ADS-B
Sat 12:56:00 AM 38.0618 -85.3956 253° West 213 245 7,600 -550 Descending FlightAware ADS-B
Sat 12:57:01 AM 38.0737 -85.4660 282° West 194 223 7,100 -446 Descending FlightAware ADS-B
Sat 12:58:01 AM 38.0909 -85.5294 289° West 189 217 6,700 -400 Descending FlightAware ADS-B
Sat 12:59:01 AM 38.1076 -85.5896 289° West 178 205 6,300 -600 Descending FlightAware ADS-B
Sat 01:00:01 AM 38.1627 -85.6080 345° North 217 250 5,500 -559 Descending FlightAware ADS-B
Sat 01:00:59 AM 38.2149 -85.6198 350° North 212 244 5,200 -151 Descending FlightAware ADS-B
Sat 01:02:00 AM 38.2796 -85.6340 350° North 213 245 5,200  Level FlightAware ADS-B
Sat 01:03:00 AM 38.3386 -85.6464 351° North 216 249 5,200  Level FlightAware ADS-B
Sat 01:04:00 AM 38.3979 -85.6600 350° North 216 249 5,200  Level FlightAware ADS-B
Sat 01:04:53 AM 38.4482 -85.6716 350° North 214 246 5,200 -365 Level FlightAware ADS-B
Sat 01:05:55 AM 38.5093 -85.6863 349° North 213 245 4,500 -566 Descending FlightAware ADS-B
Sat 01:06:39 AM 38.5322 -85.7190 312° West 147 169 4,200 -184 Descending FlightAware ADS-B
Sat 01:07:33 AM 38.5252 -85.7625 258° West 141 162 4,200  Level FlightAware ADS-B
Sat 01:09:10 AM 38.4703 -85.8038 210° Southwest 162 186 4,200 -93 Level FlightAware ADS-B
Sat 01:09:42 AM 38.4528 -85.8108 210° Southwest 144 166 4,000 -130 Descending Indianapolis Center
Sat 01:10:42 AM 38.4064 -85.8083 178° South 152 175 4,000  Level Indianapolis Center
Sat 01:11:42 AM 38.3614 -85.7917 164° South 160 184 4,000 -347 Level Indianapolis Center
Sat 01:12:43 AM 38.3178 -85.7764 165° South 162 186 3,300 -694 Descending Indianapolis Center
Sat 01:13:43 AM 38.2836 -85.7647 165° South 161 185 2,600 -700 Descending Indianapolis Center

Login

Don't have an account? Register now (free) for customized features, flight alerts, and more!